sensor_id;sensor_type;location;lat;lon;timestamp;P1;durP1;ratioP1;P2;durP2;ratioP2
20203;SDS011;10261;49.010;12.034;2022-10-28T00:00:11;4.28;;;3.63;;
20203;SDS011;10261;49.010;12.034;2022-10-28T00:01:16;7.55;;;3.40;;
20203;SDS011;10261;49.010;12.034;2022-10-28T00:02:20;5.15;;;3.65;;
20203;SDS011;10261;49.010;12.034;2022-10-28T00:03:23;3.45;;;3.15;;
20203;SDS011;10261;49.010;12.034;2022-10-28T00:04:25;5.85;;;4.13;;
20203;SDS011;10261;49.010;12.034;2022-10-28T00:05:28;7.63;;;3.90;;
20203;SDS011;10261;49.010;12.034;2022-10-28T00:06:35;4.43;;;3.40;;
20203;SDS011;10261;49.010;12.034;2022-10-28T00:07:38;4.00;;;3.60;;
20203;SDS011;10261;49.010;12.034;2022-10-28T00:08:40;4.30;;;3.20;;
20203;SDS011;10261;49.010;12.034;2022-10-28T00:09:43;4.72;;;3.50;;
20203;SDS011;10261;49.010;12.034;2022-10-28T00:10:45;7.85;;;3.42;;
20203;SDS011;10261;49.010;12.034;2022-10-28T00:11:48;6.03;;;3.83;;
20203;SDS011;10261;49.010;12.034;2022-10-28T00:12:50;4.60;;;3.65;;
20203;SDS011;10261;49.010;12.034;2022-10-28T00:13:53;3.20;;;2.90;;
20203;SDS011;10261;49.010;12.034;2022-10-28T00:14:57;5.07;;;3.67;;
20203;SDS011;10261;49.010;12.034;2022-10-28T00:16:03;3.78;;;3.38;;
20203;SDS011;10261;49.010;12.034;2022-10-28T00:17:08;5.13;;;3.78;;
20203;SDS011;10261;49.010;12.034;2022-10-28T00:18:11;3.97;;;3.25;;
20203;SDS011;10261;49.010;12.034;2022-10-28T00:19:13;4.97;;;3.72;;
20203;SDS011;10261;49.010;12.034;2022-10-28T00:20:16;9.13;;;3.67;;
20203;SDS011;10261;49.010;12.034;2022-10-28T00:21:19;9.35;;;4.28;;
20203;SDS011;10261;49.010;12.034;2022-10-28T00:22:23;5.20;;;3.28;;
20203;SDS011;10261;49.010;12.034;2022-10-28T00:23:25;5.63;;;3.03;;
20203;SDS011;10261;49.010;12.034;2022-10-28T00:24:28;13.95;;;3.90;;
20203;SDS011;10261;49.010;12.034;2022-10-28T00:25:30;5.80;;;4.00;;
20203;SDS011;10261;49.010;12.034;2022-10-28T00:26:35;4.47;;;3.40;;
20203;SDS011;10261;49.010;12.034;2022-10-28T00:27:38;4.57;;;3.00;;
20203;SDS011;10261;49.010;12.034;2022-10-28T00:28:42;6.38;;;3.60;;
20203;SDS011;10261;49.010;12.034;2022-10-28T00:29:45;4.00;;;3.25;;
20203;SDS011;10261;49.010;12.034;2022-10-28T00:30:48;8.63;;;3.95;;
20203;SDS011;10261;49.010;12.034;2022-10-28T00:31:50;3.65;;;2.85;;
20203;SDS011;10261;49.010;12.034;2022-10-28T00:32:55;4.00;;;3.60;;
20203;SDS011;10261;49.010;12.034;2022-10-28T00:33:57;6.75;;;3.22;;
20203;SDS011;10261;49.010;12.034;2022-10-28T00:35:01;3.53;;;3.20;;
20203;SDS011;10261;49.010;12.034;2022-10-28T00:36:06;4.00;;;3.35;;
20203;SDS011;10261;49.010;12.034;2022-10-28T00:37:10;10.98;;;3.40;;
20203;SDS011;10261;49.010;12.034;2022-10-28T00:38:14;3.17;;;2.80;;
20203;SDS011;10261;49.010;12.034;2022-10-28T00:39:16;10.45;;;3.40;;
20203;SDS011;10261;49.010;12.034;2022-10-28T00:40:20;4.90;;;3.00;;
20203;SDS011;10261;49.010;12.034;2022-10-28T00:41:24;9.07;;;3.03;;
20203;SDS011;10261;49.010;12.034;2022-10-28T00:42:28;4.20;;;3.65;;
20203;SDS011;10261;49.010;12.034;2022-10-28T00:43:34;4.40;;;3.75;;
20203;SDS011;10261;49.010;12.034;2022-10-28T00:44:51;6.47;;;4.10;;
20203;SDS011;10261;49.010;12.034;2022-10-28T00:45:55;4.07;;;3.67;;
20203;SDS011;10261;49.010;12.034;2022-10-28T00:46:58;9.18;;;4.20;;
20203;SDS011;10261;49.010;12.034;2022-10-28T00:48:02;7.03;;;3.63;;
20203;SDS011;10261;49.010;12.034;2022-10-28T00:49:16;6.15;;;3.03;;
20203;SDS011;10261;49.010;12.034;2022-10-28T00:50:37;6.75;;;3.40;;
20203;SDS011;10261;49.010;12.034;2022-10-28T00:51:45;9.60;;;3.67;;
20203;SDS011;10261;49.010;12.034;2022-10-28T00:52:50;3.15;;;2.90;;
20203;SDS011;10261;49.010;12.034;2022-10-28T00:53:57;6.80;;;4.03;;
20203;SDS011;10261;49.010;12.034;2022-10-28T00:54:59;7.78;;;3.40;;
20203;SDS011;10261;49.010;12.034;2022-10-28T00:56:04;7.75;;;2.42;;
20203;SDS011;10261;49.010;12.034;2022-10-28T00:57:09;4.47;;;3.38;;
20203;SDS011;10261;49.010;12.034;2022-10-28T00:58:15;5.72;;;3.40;;
20203;SDS011;10261;49.010;12.034;2022-10-28T00:59:20;3.75;;;3.13;;
20203;SDS011;10261;49.010;12.034;2022-10-28T01:00:35;5.75;;;4.50;;
20203;SDS011;10261;49.010;12.034;2022-10-28T01:01:37;5.90;;;3.97;;
20203;SDS011;10261;49.010;12.034;2022-10-28T01:02:41;4.75;;;3.50;;
20203;SDS011;10261;49.010;12.034;2022-10-28T01:03:47;4.72;;;3.50;;
20203;SDS011;10261;49.010;12.034;2022-10-28T01:04:50;6.00;;;3.00;;
20203;SDS011;10261;49.010;12.034;2022-10-28T01:05:53;8.48;;;3.42;;
20203;SDS011;10261;49.010;12.034;2022-10-28T01:06:56;5.22;;;3.47;;
20203;SDS011;10261;49.010;12.034;2022-10-28T01:08:00;5.30;;;3.38;;
20203;SDS011;10261;49.010;12.034;2022-10-28T01:09:05;4.40;;;3.67;;
20203;SDS011;10261;49.010;12.034;2022-10-28T01:10:07;5.28;;;3.70;;
20203;SDS011;10261;49.010;12.034;2022-10-28T01:12:55;7.32;;;4.70;;
20203;SDS011;10261;49.010;12.034;2022-10-28T01:14:17;6.25;;;3.95;;
20203;SDS011;10261;49.010;12.034;2022-10-28T01:15:28;7.00;;;4.75;;
20203;SDS011;10261;49.010;12.034;2022-10-28T01:16:36;10.80;;;3.70;;
20203;SDS011;10261;49.010;12.034;2022-10-28T01:17:47;7.80;;;3.88;;
20203;SDS011;10261;49.010;12.034;2022-10-28T01:19:03;6.38;;;3.65;;
20203;SDS011;10261;49.010;12.034;2022-10-28T01:22:15;4.28;;;3.88;;
20203;SDS011;10261;49.010;12.034;2022-10-28T01:23:24;4.05;;;3.65;;
20203;SDS011;10261;49.010;12.034;2022-10-28T01:24:35;5.25;;;3.72;;
20203;SDS011;10261;49.010;12.034;2022-10-28T01:26:00;4.50;;;3.33;;
20203;SDS011;10261;49.010;12.034;2022-10-28T01:27:28;12.73;;;3.42;;
20203;SDS011;10261;49.010;12.034;2022-10-28T01:30:53;5.80;;;3.95;;
20203;SDS011;10261;49.010;12.034;2022-10-28T01:32:16;5.30;;;3.25;;
20203;SDS011;10261;49.010;12.034;2022-10-28T01:33:27;4.13;;;3.72;;
20203;SDS011;10261;49.010;12.034;2022-10-28T01:34:37;4.30;;;3.90;;
20203;SDS011;10261;49.010;12.034;2022-10-28T01:35:50;5.72;;;3.42;;
20203;SDS011;10261;49.010;12.034;2022-10-28T01:36:57;5.50;;;3.60;;
20203;SDS011;10261;49.010;12.034;2022-10-28T01:38:09;5.07;;;4.15;;
20203;SDS011;10261;49.010;12.034;2022-10-28T01:39:25;3.70;;;3.40;;
20203;SDS011;10261;49.010;12.034;2022-10-28T01:40:33;13.52;;;3.42;;
20203;SDS011;10261;49.010;12.034;2022-10-28T01:41:46;4.97;;;3.90;;
20203;SDS011;10261;49.010;12.034;2022-10-28T01:42:52;4.40;;;4.00;;
20203;SDS011;10261;49.010;12.034;2022-10-28T01:43:59;3.60;;;3.30;;
20203;SDS011;10261;49.010;12.034;2022-10-28T01:45:08;8.00;;;3.38;;
20203;SDS011;10261;49.010;12.034;2022-10-28T01:46:19;3.50;;;3.05;;
20203;SDS011;10261;49.010;12.034;2022-10-28T01:47:25;4.93;;;3.85;;
20203;SDS011;10261;49.010;12.034;2022-10-28T01:48:31;6.00;;;3.95;;
20203;SDS011;10261;49.010;12.034;2022-10-28T01:49:44;5.43;;;3.63;;
20203;SDS011;10261;49.010;12.034;2022-10-28T01:50:54;3.65;;;3.33;;
20203;SDS011;10261;49.010;12.034;2022-10-28T01:52:00;3.53;;;3.22;;
20203;SDS011;10261;49.010;12.034;2022-10-28T01:53:08;9.10;;;3.88;;
20203;SDS011;10261;49.010;12.034;2022-10-28T01:54:14;4.20;;;3.55;;
20203;SDS011;10261;49.010;12.034;2022-10-28T01:55:21;3.75;;;3.45;;
20203;SDS011;10261;49.010;12.034;2022-10-28T01:56:27;7.45;;;3.90;;
20203;SDS011;10261;49.010;12.034;2022-10-28T01:57:35;5.07;;;3.90;;
20203;SDS011;10261;49.010;12.034;2022-10-28T01:58:40;9.18;;;3.90;;
20203;SDS011;10261;49.010;12.034;2022-10-28T01:59:44;3.75;;;3.30;;
20203;SDS011;10261;49.010;12.034;2022-10-28T02:00:48;6.40;;;4.07;;
20203;SDS011;10261;49.010;12.034;2022-10-28T02:01:53;4.18;;;3.05;;
20203;SDS011;10261;49.010;12.034;2022-10-28T02:02:56;6.78;;;3.80;;
20203;SDS011;10261;49.010;12.034;2022-10-28T02:03:59;4.20;;;3.90;;
20203;SDS011;10261;49.010;12.034;2022-10-28T02:05:03;7.85;;;3.78;;
20203;SDS011;10261;49.010;12.034;2022-10-28T02:06:11;7.57;;;4.03;;
20203;SDS011;10261;49.010;12.034;2022-10-28T02:07:16;12.05;;;4.15;;
20203;SDS011;10261;49.010;12.034;2022-10-28T02:08:41;8.38;;;4.25;;
20203;SDS011;10261;49.010;12.034;2022-10-28T02:09:55;8.40;;;4.07;;
20203;SDS011;10261;49.010;12.034;2022-10-28T02:11:17;4.13;;;3.58;;
20203;SDS011;10261;49.010;12.034;2022-10-28T02:12:34;8.25;;;4.00;;
20203;SDS011;10261;49.010;12.034;2022-10-28T02:13:41;6.88;;;4.05;;
20203;SDS011;10261;49.010;12.034;2022-10-28T02:14:57;7.70;;;3.70;;
20203;SDS011;10261;49.010;12.034;2022-10-28T02:16:17;4.45;;;3.67;;
20203;SDS011;10261;49.010;12.034;2022-10-28T02:17:30;7.55;;;3.20;;
20203;SDS011;10261;49.010;12.034;2022-10-28T02:18:41;3.97;;;3.58;;
20203;SDS011;10261;49.010;12.034;2022-10-28T02:19:50;4.40;;;3.40;;
20203;SDS011;10261;49.010;12.034;2022-10-28T02:21:00;4.93;;;4.15;;
20203;SDS011;10261;49.010;12.034;2022-10-28T02:22:09;5.82;;;3.88;;
20203;SDS011;10261;49.010;12.034;2022-10-28T02:23:21;6.15;;;4.05;;
20203;SDS011;10261;49.010;12.034;2022-10-28T02:24:37;9.10;;;3.85;;
20203;SDS011;10261;49.010;12.034;2022-10-28T02:25:47;5.38;;;4.57;;
20203;SDS011;10261;49.010;12.034;2022-10-28T02:26:55;6.82;;;3.80;;
20203;SDS011;10261;49.010;12.034;2022-10-28T02:28:05;5.70;;;3.80;;
20203;SDS011;10261;49.010;12.034;2022-10-28T02:29:14;4.60;;;3.50;;
20203;SDS011;10261;49.010;12.034;2022-10-28T02:30:22;6.20;;;5.00;;
20203;SDS011;10261;49.010;12.034;2022-10-28T02:31:29;4.03;;;3.50;;
20203;SDS011;10261;49.010;12.034;2022-10-28T02:32:39;5.90;;;3.70;;
20203;SDS011;10261;49.010;12.034;2022-10-28T02:33:45;5.32;;;4.07;;
20203;SDS011;10261;49.010;12.034;2022-10-28T02:34:53;4.10;;;3.70;;
20203;SDS011;10261;49.010;12.034;2022-10-28T02:35:59;7.72;;;3.80;;
20203;SDS011;10261;49.010;12.034;2022-10-28T02:37:05;5.68;;;3.83;;
20203;SDS011;10261;49.010;12.034;2022-10-28T02:38:13;6.60;;;4.10;;
20203;SDS011;10261;49.010;12.034;2022-10-28T02:39:26;7.22;;;4.30;;
20203;SDS011;10261;49.010;12.034;2022-10-28T02:40:34;8.02;;;4.45;;
20203;SDS011;10261;49.010;12.034;2022-10-28T02:41:39;8.55;;;5.07;;
20203;SDS011;10261;49.010;12.034;2022-10-28T02:42:47;5.13;;;3.50;;
20203;SDS011;10261;49.010;12.034;2022-10-28T02:43:54;4.72;;;4.10;;
20203;SDS011;10261;49.010;12.034;2022-10-28T02:45:00;8.52;;;4.65;;
20203;SDS011;10261;49.010;12.034;2022-10-28T02:46:07;11.38;;;4.47;;
20203;SDS011;10261;49.010;12.034;2022-10-28T02:47:12;6.15;;;3.90;;
20203;SDS011;10261;49.010;12.034;2022-10-28T02:48:22;4.97;;;3.50;;
20203;SDS011;10261;49.010;12.034;2022-10-28T02:49:29;14.65;;;3.88;;
20203;SDS011;10261;49.010;12.034;2022-10-28T02:50:37;16.05;;;4.60;;
20203;SDS011;10261;49.010;12.034;2022-10-28T02:51:43;6.00;;;3.58;;
20203;SDS011;10261;49.010;12.034;2022-10-28T02:52:49;4.63;;;3.85;;
20203;SDS011;10261;49.010;12.034;2022-10-28T02:53:58;7.18;;;4.45;;
20203;SDS011;10261;49.010;12.034;2022-10-28T02:55:03;4.85;;;4.45;;
20203;SDS011;10261;49.010;12.034;2022-10-28T02:56:07;5.15;;;3.78;;
20203;SDS011;10261;49.010;12.034;2022-10-28T02:57:12;6.80;;;4.28;;
20203;SDS011;10261;49.010;12.034;2022-10-28T02:58:17;9.00;;;3.70;;
20203;SDS011;10261;49.010;12.034;2022-10-28T02:59:20;5.35;;;3.67;;
20203;SDS011;10261;49.010;12.034;2022-10-28T03:00:26;6.22;;;4.20;;
20203;SDS011;10261;49.010;12.034;2022-10-28T03:01:28;7.30;;;4.63;;
20203;SDS011;10261;49.010;12.034;2022-10-28T03:02:31;6.82;;;4.45;;
20203;SDS011;10261;49.010;12.034;2022-10-28T03:03:34;5.78;;;4.13;;
20203;SDS011;10261;49.010;12.034;2022-10-28T03:04:37;5.50;;;3.85;;
20203;SDS011;10261;49.010;12.034;2022-10-28T03:05:39;4.38;;;3.97;;
20203;SDS011;10261;49.010;12.034;2022-10-28T03:06:42;7.18;;;3.70;;
20203;SDS011;10261;49.010;12.034;2022-10-28T03:07:44;6.45;;;3.70;;
20203;SDS011;10261;49.010;12.034;2022-10-28T03:08:47;8.82;;;4.35;;
20203;SDS011;10261;49.010;12.034;2022-10-28T03:09:49;5.88;;;4.10;;
20203;SDS011;10261;49.010;12.034;2022-10-28T03:10:52;5.47;;;4.43;;
20203;SDS011;10261;49.010;12.034;2022-10-28T03:11:54;6.50;;;4.78;;
20203;SDS011;10261;49.010;12.034;2022-10-28T03:12:57;6.10;;;3.90;;
20203;SDS011;10261;49.010;12.034;2022-10-28T03:13:59;4.22;;;3.83;;
20203;SDS011;10261;49.010;12.034;2022-10-28T03:15:02;7.15;;;3.80;;
20203;SDS011;10261;49.010;12.034;2022-10-28T03:16:04;8.82;;;4.45;;
20203;SDS011;10261;49.010;12.034;2022-10-28T03:17:07;4.75;;;3.65;;
20203;SDS011;10261;49.010;12.034;2022-10-28T03:18:09;5.25;;;4.05;;
20203;SDS011;10261;49.010;12.034;2022-10-28T03:19:14;6.45;;;3.92;;
20203;SDS011;10261;49.010;12.034;2022-10-28T03:20:16;7.15;;;4.35;;
20203;SDS011;10261;49.010;12.034;2022-10-28T03:21:19;11.45;;;4.93;;
20203;SDS011;10261;49.010;12.034;2022-10-28T03:22:21;7.60;;;4.93;;
20203;SDS011;10261;49.010;12.034;2022-10-28T03:23:23;8.48;;;5.32;;
20203;SDS011;10261;49.010;12.034;2022-10-28T03:24:25;6.55;;;4.65;;
20203;SDS011;10261;49.010;12.034;2022-10-28T03:25:28;7.38;;;4.57;;
20203;SDS011;10261;49.010;12.034;2022-10-28T03:26:30;8.90;;;4.97;;
20203;SDS011;10261;49.010;12.034;2022-10-28T03:27:33;15.65;;;5.93;;
20203;SDS011;10261;49.010;12.034;2022-10-28T03:28:35;6.25;;;4.40;;
20203;SDS011;10261;49.010;12.034;2022-10-28T03:29:38;11.93;;;5.75;;
20203;SDS011;10261;49.010;12.034;2022-10-28T03:30:46;9.50;;;4.60;;
20203;SDS011;10261;49.010;12.034;2022-10-28T03:31:49;12.25;;;5.22;;
20203;SDS011;10261;49.010;12.034;2022-10-28T03:32:51;11.43;;;6.05;;
20203;SDS011;10261;49.010;12.034;2022-10-28T03:33:54;14.10;;;6.00;;
20203;SDS011;10261;49.010;12.034;2022-10-28T03:34:58;10.43;;;5.53;;
20203;SDS011;10261;49.010;12.034;2022-10-28T03:36:00;11.15;;;5.78;;
20203;SDS011;10261;49.010;12.034;2022-10-28T03:37:02;15.88;;;6.70;;
20203;SDS011;10261;49.010;12.034;2022-10-28T03:38:05;9.35;;;6.18;;
20203;SDS011;10261;49.010;12.034;2022-10-28T03:39:07;11.27;;;6.35;;
20203;SDS011;10261;49.010;12.034;2022-10-28T03:40:11;11.00;;;6.38;;
20203;SDS011;10261;49.010;12.034;2022-10-28T03:41:13;13.32;;;6.82;;
20203;SDS011;10261;49.010;12.034;2022-10-28T03:42:16;12.77;;;6.60;;
20203;SDS011;10261;49.010;12.034;2022-10-28T03:43:18;13.05;;;7.38;;
20203;SDS011;10261;49.010;12.034;2022-10-28T03:44:21;14.93;;;6.78;;
20203;SDS011;10261;49.010;12.034;2022-10-28T03:45:23;12.07;;;7.32;;
20203;SDS011;10261;49.010;12.034;2022-10-28T03:46:26;14.55;;;7.93;;
20203;SDS011;10261;49.010;12.034;2022-10-28T03:47:31;14.90;;;7.82;;
20203;SDS011;10261;49.010;12.034;2022-10-28T03:48:35;11.77;;;6.80;;
20203;SDS011;10261;49.010;12.034;2022-10-28T03:49:37;13.32;;;7.32;;
20203;SDS011;10261;49.010;12.034;2022-10-28T03:50:41;13.43;;;7.60;;
20203;SDS011;10261;49.010;12.034;2022-10-28T03:51:43;14.63;;;6.60;;
20203;SDS011;10261;49.010;12.034;2022-10-28T03:52:46;16.23;;;7.60;;
20203;SDS011;10261;49.010;12.034;2022-10-28T03:53:48;15.38;;;7.40;;
20203;SDS011;10261;49.010;12.034;2022-10-28T03:54:51;12.57;;;7.07;;
20203;SDS011;10261;49.010;12.034;2022-10-28T03:55:53;17.90;;;8.55;;
20203;SDS011;10261;49.010;12.034;2022-10-28T03:56:56;22.13;;;7.47;;
20203;SDS011;10261;49.010;12.034;2022-10-28T03:57:59;20.27;;;8.13;;
20203;SDS011;10261;49.010;12.034;2022-10-28T03:59:02;15.38;;;7.72;;
20203;SDS011;10261;49.010;12.034;2022-10-28T04:00:04;20.95;;;7.60;;
20203;SDS011;10261;49.010;12.034;2022-10-28T04:01:08;18.42;;;8.00;;
20203;SDS011;10261;49.010;12.034;2022-10-28T04:02:11;17.42;;;8.05;;
20203;SDS011;10261;49.010;12.034;2022-10-28T04:03:16;17.73;;;7.65;;
20203;SDS011;10261;49.010;12.034;2022-10-28T04:04:19;18.67;;;8.23;;
20203;SDS011;10261;49.010;12.034;2022-10-28T04:05:21;13.27;;;7.43;;
20203;SDS011;10261;49.010;12.034;2022-10-28T04:06:26;17.83;;;8.20;;
20203;SDS011;10261;49.010;12.034;2022-10-28T04:07:27;14.88;;;8.35;;
20203;SDS011;10261;49.010;12.034;2022-10-28T04:08:31;13.32;;;8.30;;
20203;SDS011;10261;49.010;12.034;2022-10-28T04:09:33;12.95;;;8.40;;
20203;SDS011;10261;49.010;12.034;2022-10-28T04:10:36;20.27;;;8.77;;
20203;SDS011;10261;49.010;12.034;2022-10-28T04:11:38;19.45;;;8.15;;
20203;SDS011;10261;49.010;12.034;2022-10-28T04:12:40;19.70;;;7.65;;
20203;SDS011;10261;49.010;12.034;2022-10-28T04:13:42;18.33;;;7.45;;
20203;SDS011;10261;49.010;12.034;2022-10-28T04:14:45;19.75;;;9.32;;
20203;SDS011;10261;49.010;12.034;2022-10-28T04:15:47;13.55;;;7.68;;
20203;SDS011;10261;49.010;12.034;2022-10-28T04:16:50;18.35;;;8.00;;
20203;SDS011;10261;49.010;12.034;2022-10-28T04:17:52;14.27;;;8.00;;
20203;SDS011;10261;49.010;12.034;2022-10-28T04:18:55;14.00;;;7.10;;
20203;SDS011;10261;49.010;12.034;2022-10-28T04:19:57;14.43;;;8.55;;
20203;SDS011;10261;49.010;12.034;2022-10-28T04:21:00;17.40;;;8.45;;
20203;SDS011;10261;49.010;12.034;2022-10-28T04:22:04;21.05;;;8.75;;
20203;SDS011;10261;49.010;12.034;2022-10-28T04:23:07;17.60;;;8.90;;
20203;SDS011;10261;49.010;12.034;2022-10-28T04:24:11;17.08;;;7.40;;
20203;SDS011;10261;49.010;12.034;2022-10-28T04:25:14;14.93;;;7.88;;
20203;SDS011;10261;49.010;12.034;2022-10-28T04:26:16;16.08;;;7.13;;
20203;SDS011;10261;49.010;12.034;2022-10-28T04:27:19;17.65;;;7.88;;
20203;SDS011;10261;49.010;12.034;2022-10-28T04:28:22;13.82;;;7.60;;
20203;SDS011;10261;49.010;12.034;2022-10-28T04:29:24;12.20;;;7.10;;
20203;SDS011;10261;49.010;12.034;2022-10-28T04:30:27;10.52;;;7.60;;
20203;SDS011;10261;49.010;12.034;2022-10-28T04:31:29;13.38;;;7.63;;
20203;SDS011;10261;49.010;12.034;2022-10-28T04:32:32;11.93;;;7.20;;
20203;SDS011;10261;49.010;12.034;2022-10-28T04:33:34;18.30;;;8.70;;
20203;SDS011;10261;49.010;12.034;2022-10-28T04:34:37;18.42;;;8.30;;
20203;SDS011;10261;49.010;12.034;2022-10-28T04:35:39;19.73;;;7.00;;
20203;SDS011;10261;49.010;12.034;2022-10-28T04:36:43;12.35;;;7.47;;
20203;SDS011;10261;49.010;12.034;2022-10-28T04:37:46;20.00;;;7.70;;
20203;SDS011;10261;49.010;12.034;2022-10-28T04:38:49;13.98;;;8.40;;
20203;SDS011;10261;49.010;12.034;2022-10-28T04:39:52;10.80;;;7.13;;
20203;SDS011;10261;49.010;12.034;2022-10-28T04:40:55;12.85;;;8.63;;
20203;SDS011;10261;49.010;12.034;2022-10-28T04:41:57;17.65;;;8.27;;
20203;SDS011;10261;49.010;12.034;2022-10-28T04:42:59;12.38;;;6.57;;
20203;SDS011;10261;49.010;12.034;2022-10-28T04:44:02;11.85;;;7.30;;
20203;SDS011;10261;49.010;12.034;2022-10-28T04:45:05;15.30;;;7.85;;
20203;SDS011;10261;49.010;12.034;2022-10-28T04:46:08;13.55;;;7.30;;
20203;SDS011;10261;49.010;12.034;2022-10-28T04:47:11;13.15;;;8.68;;
20203;SDS011;10261;49.010;12.034;2022-10-28T04:48:13;14.00;;;8.48;;
20203;SDS011;10261;49.010;12.034;2022-10-28T04:49:16;15.57;;;7.68;;
20203;SDS011;10261;49.010;12.034;2022-10-28T04:50:18;19.05;;;8.32;;
20203;SDS011;10261;49.010;12.034;2022-10-28T04:51:21;11.68;;;7.72;;
20203;SDS011;10261;49.010;12.034;2022-10-28T04:52:23;14.65;;;9.32;;
20203;SDS011;10261;49.010;12.034;2022-10-28T04:53:27;10.60;;;7.25;;
20203;SDS011;10261;49.010;12.034;2022-10-28T04:54:29;13.30;;;7.82;;
20203;SDS011;10261;49.010;12.034;2022-10-28T04:55:32;14.07;;;8.77;;
20203;SDS011;10261;49.010;12.034;2022-10-28T04:56:34;15.90;;;9.32;;
20203;SDS011;10261;49.010;12.034;2022-10-28T04:57:37;14.30;;;8.18;;
20203;SDS011;10261;49.010;12.034;2022-10-28T04:58:39;17.25;;;9.32;;
20203;SDS011;10261;49.010;12.034;2022-10-28T04:59:42;14.52;;;8.70;;
20203;SDS011;10261;49.010;12.034;2022-10-28T05:00:44;15.95;;;8.60;;
20203;SDS011;10261;49.010;12.034;2022-10-28T05:01:47;18.55;;;7.60;;
20203;SDS011;10261;49.010;12.034;2022-10-28T05:02:52;12.90;;;7.75;;
20203;SDS011;10261;49.010;12.034;2022-10-28T05:03:55;15.68;;;9.90;;
20203;SDS011;10261;49.010;12.034;2022-10-28T05:04:57;13.30;;;8.55;;
20203;SDS011;10261;49.010;12.034;2022-10-28T05:06:03;12.02;;;8.05;;
20203;SDS011;10261;49.010;12.034;2022-10-28T05:07:06;15.45;;;7.95;;
20203;SDS011;10261;49.010;12.034;2022-10-28T05:08:09;14.93;;;9.00;;
20203;SDS011;10261;49.010;12.034;2022-10-28T05:09:13;14.95;;;9.52;;
20203;SDS011;10261;49.010;12.034;2022-10-28T05:10:16;16.23;;;8.40;;
20203;SDS011;10261;49.010;12.034;2022-10-28T05:11:18;14.68;;;8.20;;
20203;SDS011;10261;49.010;12.034;2022-10-28T05:12:21;17.90;;;8.60;;
20203;SDS011;10261;49.010;12.034;2022-10-28T05:13:23;13.07;;;8.68;;
20203;SDS011;10261;49.010;12.034;2022-10-28T05:14:26;17.23;;;8.05;;
20203;SDS011;10261;49.010;12.034;2022-10-28T05:15:28;14.82;;;8.35;;
20203;SDS011;10261;49.010;12.034;2022-10-28T05:16:31;13.43;;;8.50;;
20203;SDS011;10261;49.010;12.034;2022-10-28T05:17:33;12.30;;;7.65;;
20203;SDS011;10261;49.010;12.034;2022-10-28T05:18:36;15.15;;;8.40;;
20203;SDS011;10261;49.010;12.034;2022-10-28T05:20:26;13.60;;;7.35;;
20203;SDS011;10261;49.010;12.034;2022-10-28T05:21:29;20.42;;;8.75;;
20203;SDS011;10261;49.010;12.034;2022-10-28T05:22:32;13.80;;;8.60;;
20203;SDS011;10261;49.010;12.034;2022-10-28T05:23:34;13.93;;;8.65;;
20203;SDS011;10261;49.010;12.034;2022-10-28T05:24:38;12.90;;;7.65;;
20203;SDS011;10261;49.010;12.034;2022-10-28T05:25:41;14.88;;;8.77;;
20203;SDS011;10261;49.010;12.034;2022-10-28T05:26:44;12.88;;;8.20;;
20203;SDS011;10261;49.010;12.034;2022-10-28T05:27:46;13.40;;;7.85;;
20203;SDS011;10261;49.010;12.034;2022-10-28T05:28:49;12.48;;;8.55;;
20203;SDS011;10261;49.010;12.034;2022-10-28T05:29:51;13.15;;;8.38;;
20203;SDS011;10261;49.010;12.034;2022-10-28T05:30:54;14.40;;;7.50;;
20203;SDS011;10261;49.010;12.034;2022-10-28T05:31:57;16.65;;;8.63;;
20203;SDS011;10261;49.010;12.034;2022-10-28T05:33:00;17.35;;;9.30;;
20203;SDS011;10261;49.010;12.034;2022-10-28T05:34:03;15.07;;;8.85;;
20203;SDS011;10261;49.010;12.034;2022-10-28T05:35:06;10.75;;;7.85;;
20203;SDS011;10261;49.010;12.034;2022-10-28T05:36:09;13.65;;;9.35;;
20203;SDS011;10261;49.010;12.034;2022-10-28T05:37:11;14.75;;;9.30;;
20203;SDS011;10261;49.010;12.034;2022-10-28T05:38:14;18.67;;;9.13;;
20203;SDS011;10261;49.010;12.034;2022-10-28T05:39:17;18.05;;;10.63;;
20203;SDS011;10261;49.010;12.034;2022-10-28T05:40:21;21.42;;;10.30;;
20203;SDS011;10261;49.010;12.034;2022-10-28T05:41:24;15.45;;;8.77;;
20203;SDS011;10261;49.010;12.034;2022-10-28T05:42:26;19.98;;;10.73;;
20203;SDS011;10261;49.010;12.034;2022-10-28T05:43:29;14.60;;;9.27;;
20203;SDS011;10261;49.010;12.034;2022-10-28T05:44:31;13.57;;;9.23;;
20203;SDS011;10261;49.010;12.034;2022-10-28T05:45:34;17.42;;;9.35;;
20203;SDS011;10261;49.010;12.034;2022-10-28T05:46:37;19.70;;;9.45;;
20203;SDS011;10261;49.010;12.034;2022-10-28T05:47:41;10.80;;;7.30;;
20203;SDS011;10261;49.010;12.034;2022-10-28T05:48:45;15.00;;;7.80;;
20203;SDS011;10261;49.010;12.034;2022-10-28T05:49:47;10.27;;;7.65;;
20203;SDS011;10261;49.010;12.034;2022-10-28T05:50:50;15.40;;;7.70;;
20203;SDS011;10261;49.010;12.034;2022-10-28T05:51:52;15.75;;;8.13;;
20203;SDS011;10261;49.010;12.034;2022-10-28T05:52:55;13.23;;;8.63;;
20203;SDS011;10261;49.010;12.034;2022-10-28T05:53:58;11.68;;;9.07;;
20203;SDS011;10261;49.010;12.034;2022-10-28T05:55:01;9.52;;;7.50;;
20203;SDS011;10261;49.010;12.034;2022-10-28T05:56:05;12.73;;;8.43;;
20203;SDS011;10261;49.010;12.034;2022-10-28T05:57:08;16.15;;;9.27;;
20203;SDS011;10261;49.010;12.034;2022-10-28T05:58:10;14.45;;;8.90;;
20203;SDS011;10261;49.010;12.034;2022-10-28T05:59:13;12.75;;;9.48;;
20203;SDS011;10261;49.010;12.034;2022-10-28T06:00:16;10.82;;;8.35;;
20203;SDS011;10261;49.010;12.034;2022-10-28T06:01:20;10.90;;;8.48;;
20203;SDS011;10261;49.010;12.034;2022-10-28T06:02:22;14.02;;;8.43;;
20203;SDS011;10261;49.010;12.034;2022-10-28T06:03:24;12.82;;;8.75;;
20203;SDS011;10261;49.010;12.034;2022-10-28T06:04:31;12.30;;;8.23;;
20203;SDS011;10261;49.010;12.034;2022-10-28T06:05:34;14.52;;;7.60;;
20203;SDS011;10261;49.010;12.034;2022-10-28T06:06:37;18.67;;;8.57;;
20203;SDS011;10261;49.010;12.034;2022-10-28T06:07:40;12.52;;;8.15;;
20203;SDS011;10261;49.010;12.034;2022-10-28T06:08:42;17.67;;;7.35;;
20203;SDS011;10261;49.010;12.034;2022-10-28T06:09:45;10.30;;;7.78;;
20203;SDS011;10261;49.010;12.034;2022-10-28T06:10:51;9.98;;;7.53;;
20203;SDS011;10261;49.010;12.034;2022-10-28T06:11:56;8.70;;;7.35;;
20203;SDS011;10261;49.010;12.034;2022-10-28T06:12:58;9.68;;;7.50;;
20203;SDS011;10261;49.010;12.034;2022-10-28T06:14:01;14.90;;;7.95;;
20203;SDS011;10261;49.010;12.034;2022-10-28T06:15:04;12.50;;;8.10;;
20203;SDS011;10261;49.010;12.034;2022-10-28T06:16:07;10.18;;;7.43;;
20203;SDS011;10261;49.010;12.034;2022-10-28T06:17:10;12.13;;;7.43;;
20203;SDS011;10261;49.010;12.034;2022-10-28T06:18:12;11.93;;;7.82;;
20203;SDS011;10261;49.010;12.034;2022-10-28T06:19:20;9.57;;;6.88;;
20203;SDS011;10261;49.010;12.034;2022-10-28T06:20:23;8.35;;;6.80;;
20203;SDS011;10261;49.010;12.034;2022-10-28T06:21:25;11.45;;;7.18;;
20203;SDS011;10261;49.010;12.034;2022-10-28T06:22:28;8.85;;;7.30;;
20203;SDS011;10261;49.010;12.034;2022-10-28T06:23:30;11.55;;;7.68;;
20203;SDS011;10261;49.010;12.034;2022-10-28T06:24:33;13.20;;;6.97;;
20203;SDS011;10261;49.010;12.034;2022-10-28T06:25:35;11.68;;;7.55;;
20203;SDS011;10261;49.010;12.034;2022-10-28T06:26:38;10.20;;;7.57;;
20203;SDS011;10261;49.010;12.034;2022-10-28T06:27:41;7.65;;;6.90;;
20203;SDS011;10261;49.010;12.034;2022-10-28T06:28:45;8.00;;;6.85;;